x

Cape Elizabeth- 45nm Nw Of Aberdeen, Wa (46041) Wave Buoy

4:50am - Thu 17th Apr 2014 All times are PDT. -7 hours from GMT.

  • Sig Wave height 8.2ft
  • Peak Period 10s
  • Average Period 7s
  • Wind
    11mph, 16mph gusts
  • Sea Temp 51°f
  • Sea Pressure 1010.1mb
  • Cape Elizabeth- 45nm Nw Of Aberdeen, Wa
  • Cape Elizabeth- 45nm Nw Of Aberdeen, Wa

More Historic Weather Station data

Upgrade to MSW Pro to gain access to the past 30 days of data for over 8000 Wavebouys and Weather Stations around the globe.

Join Pro

Comparision Forecast

View Surf forecast
   
Thu 04/17 4:50am 8ft 10s 7s 11 16 mph 1010.1mb 51f
3:50am 9ft 11s 8s 13 16 mph 1010.5mb 51f
2:50am 9ft 11s 7s 11 16 mph 1011mb 51f
1:50am 8ft 11s 7s 13 16 mph 1011.9mb 51f
12:50am 8ft 11s 7s 11 13 mph 1012.5mb 51f
Wed 04/16 11:50pm 8ft 12s 7s 11 16 mph 1012.7mb 51f
10:50pm 9ft 11s 8s 13 16 mph 1013mb 51f
9:50pm 8ft 12s 7s 13 16 mph 1013.2mb 51f
8:50pm 8ft 12s 8s 13 16 mph 1013.3mb 51f
7:50pm 8ft 12s 8s 11
mph
1013.5mb 51f
6:50pm 7.5ft 11s 8s 9 11 mph 1014.2mb 51f
5:50pm 7ft 13s 8s 7 9 mph 1014.7mb 51f
4:50pm 7ft 11s 8s 7 9 mph 1015.1mb 51f
3:50pm 8ft 13s 8s 9 11 mph 1015.6mb 51f
2:50pm 8ft 14s 8s 9 11 mph 1015.9mb 51f
1:50pm 7.5ft 14s 7s 11 13 mph 1015.9mb 51f
12:50pm 8ft 10s 7s 11 13 mph 1015.7mb 51f
11:50am 7.5ft 14s 6s 13 16 mph 1016mb 51f
10:50am 7.5ft 8s 6s 18 20 mph 1016.1mb 51f
9:50am 7ft 11s 6s 18 20 mph 1016mb 51f
8:50am 6.5ft 8s 6s 18 22 mph 1016.1mb 50f
7:50am 7ft 9s 7s 16 20 mph 1016.4mb 50f
6:50am 7ft 11s 7s 11 16 mph 1016.6mb 51f
5:50am 7ft 8s 6s 11
mph
1016.8mb 51f
4:50am 7ft 12s 7s 11 13 mph 1017mb 51f
3:50am 6.5ft 10s 7s 13 16 mph 1017mb 51f
2:50am 6ft 12s 6s 13 18 mph 1017.3mb 51f
1:50am 6.5ft 11s 6s 13 18 mph 1017.7mb 51f
12:50am 7ft 10s 7s 16 20 mph 1018mb 51f
Tue 04/15 11:50pm 6.5ft 11s 7s 13 16 mph 1018.2mb 51f
10:50pm 6ft 9s 6s 16 18 mph 1018.3mb 51f
9:50pm 6.5ft 9s 7s 11 13 mph 1018.6mb 51f
8:50pm 7.5ft 10s 7s 16 18 mph 1018.6mb 51f
7:50pm 7.5ft 9s 7s 16 20 mph 1018.7mb 51f
6:50pm 7.5ft 10s 7s 13 18 mph 1018.7mb 51f
5:50pm 8ft 10s 6s 18 22 mph 1019.6mb 51f
4:50pm 8.5ft 10s 7s 22 27 mph 1020.3mb 51f
3:50pm 7.5ft 11s 7s 20 25 mph 1020.7mb 51f
2:50pm 8.5ft 12s 7s 18 20 mph 1021.3mb 51f
1:50pm 8.5ft 11s 8s 16 20 mph 1021.8mb 51f
12:50pm 8ft 11s 8s 13 16 mph 1022.5mb 51f
11:50am 8ft 12s 8s 13 16 mph 1022.9mb 51f
10:50am 7.5ft 12s 7s 11 13 mph 1023.1mb 51f
9:50am 8.5ft 12s 8s 9 11 mph 1022.9mb 51f
8:50am 9.5ft 12s 8s 7 9 mph 1022.8mb 51f
7:50am 9.5ft 12s 8s 11 13 mph 1022.6mb 51f
6:50am 10ft 12s 9s 13 16 mph 1022.7mb 50f
5:50am  -   -   -  11 18 mph 1022.7mb 50f
4:50am 9ft 12s 8s 11 16 mph 1022.7mb 50f
3:50am 7.5ft 12s 7s 16 18 mph 1022.9mb 50f
2:50am 6ft 13s 6s 16 20 mph 1023mb 50f
1:50am 5.5ft 13s 6s 13 18 mph 1023.3mb 51f
12:50am 5.5ft 7s 6s 13 16 mph 1022.9mb 51f
Mon 04/14 11:50pm 5.5ft 6s 6s 13 18 mph 1023mb 51f
10:50pm 5.5ft 14s 5s 18 20 mph 1023.2mb 51f
9:50pm 5.5ft 13s 5s 16 20 mph 1023mb 51f
8:50pm 6ft 14s 6s 18 22 mph 1022.9mb 51f
7:50pm 6ft 14s 5s 18 22 mph 1022.7mb 51f
6:50pm 6ft 13s 6s 20 25 mph 1022.9mb 51f
5:50pm 6.5ft 13s 6s 20 25 mph 1022.6mb 51f
3:50pm 5ft 13s 5s 22 25 mph 1022.1mb 51f
2:50pm 5.5ft 14s 6s 22 25 mph 1022.3mb 51f
1:50pm 5.5ft 13s 6s 22 27 mph 1022mb 51f
12:50pm 5ft 13s 5s 20 25 mph 1021.8mb 51f
11:50am 4.5ft 13s 6s 18 22 mph 1021.4mb 51f
10:50am 4.5ft 14s 6s 18 22 mph 1020.7mb 51f
9:50am 4.5ft 13s 8s 20 25 mph 1020.2mb 51f
8:50am 4ft 14s 9s 11 16 mph 1019.9mb 51f
7:50am 4.5ft 14s 10s 7 9 mph 1019.9mb 51f
6:50am 4.5ft 14s 9s 9 18 mph 1019.5mb 51f
5:50am 4.5ft 14s 9s 4 7 mph 1018.7mb 51f
4:50am 5ft 14s 9s 2
mph
1019mb 51f
3:50am 4.5ft 14s 9s  -  2 mph 1019mb 51f
2:50am 4.5ft 15s 9s 4
mph
1019.3mb 51f
1:50am 4.5ft 15s 9s 7 9 mph 1019.4mb 52f
12:50am 4ft 15s 8s 7
mph
1020.1mb 52f
Sun 04/13 11:50pm 4.5ft 15s 9s 9 11 mph 1020.8mb 52f
10:50pm 4.5ft 15s 8s 11
mph
1021.3mb 52f
9:50pm 5ft 15s 8s 11 13 mph 1021.8mb 52f
8:50pm 5ft 15s 8s 11
mph
1022.1mb 53f
7:50pm 4.5ft 14s 8s 11 13 mph 1022.1mb 53f
6:50pm 4.5ft 14s 9s 9 11 mph 1022.4mb 53f
5:50pm 4.5ft 15s 8s 9
mph
1023mb 54f
4:50pm 4.5ft 15s 8s 7 9 mph 1023.5mb 54f
3:50pm 4.5ft 15s 8s 9 11 mph 1024.1mb 54f
2:50pm 4.5ft 15s 8s 11 13 mph 1024.7mb 54f
1:50pm 4.5ft 16s 8s 9 11 mph 1025mb 53f